createdAt,value
2018-12-19T00:01:48.313Z,100402.39
2018-12-19T00:04:17.346Z,100401.97
2018-12-19T00:06:46.273Z,100409.73
2018-12-19T00:09:15.197Z,100408.00
2018-12-19T00:11:44.322Z,100405.00
2018-12-19T00:14:13.249Z,100415.34
2018-12-19T00:16:42.538Z,100405.83
2018-12-19T00:19:11.354Z,100409.28
2018-12-19T00:21:40.221Z,100411.45
2018-12-19T00:24:09.406Z,100415.34
2018-12-19T00:26:38.300Z,100416.66
2018-12-19T00:29:07.229Z,100421.84
2018-12-19T00:31:36.258Z,100413.63
2018-12-19T00:34:05.060Z,100407.98
2018-12-19T00:36:34.462Z,100405.38
2018-12-19T00:39:09.515Z,100404.48
2018-12-19T00:41:36.190Z,100404.09
2018-12-19T00:44:05.117Z,100410.59
2018-12-19T00:46:34.040Z,100409.27
2018-12-19T00:49:02.969Z,100409.72
2018-12-19T00:51:32.021Z,100409.69
2018-12-19T00:54:00.972Z,100409.27
2018-12-19T00:56:29.820Z,100408.86
2018-12-19T00:58:58.850Z,100403.63
2018-12-19T01:01:27.645Z,100407.94
2018-12-19T01:03:56.454Z,100406.69
2018-12-19T01:06:25.481Z,100408.81
2018-12-19T01:08:54.332Z,100408.83
2018-12-19T01:11:23.253Z,100413.56
2018-12-19T01:13:52.279Z,100411.42
2018-12-19T01:16:21.084Z,100408.41
2018-12-19T01:18:49.894Z,100407.53
2018-12-19T01:21:18.804Z,100410.17
2018-12-19T01:23:47.644Z,100415.72
2018-12-19T01:26:16.462Z,100409.70
2018-12-19T01:28:45.397Z,100408.42
2018-12-19T01:31:14.318Z,100411.45
2018-12-19T01:33:43.160Z,100411.42
2018-12-19T01:36:12.066Z,100404.09
2018-12-19T01:38:41.016Z,100405.41
2018-12-19T01:41:09.962Z,100408.84
2018-12-19T01:43:39.279Z,100405.43
2018-12-19T01:46:08.193Z,100401.09
2018-12-19T01:48:37.130Z,100404.94
2018-12-19T01:51:05.941Z,100407.55
2018-12-19T01:53:34.724Z,100405.80
2018-12-19T01:56:03.804Z,100399.76
2018-12-19T01:58:32.611Z,100397.59
2018-12-19T02:01:01.549Z,100400.60
2018-12-19T02:03:30.377Z,100399.77
2018-12-19T02:05:59.277Z,100394.98
2018-12-19T02:08:28.189Z,100397.14
2018-12-19T02:10:57.406Z,100392.38
2018-12-19T02:13:26.426Z,100395.45
2018-12-19T02:15:55.425Z,100396.73
2018-12-19T02:18:24.360Z,100399.30
2018-12-19T02:20:53.286Z,100400.13
2018-12-19T02:23:22.081Z,100399.77
2018-12-19T02:25:50.898Z,100397.62
2018-12-19T02:28:19.828Z,100394.56
2018-12-19T02:30:49.209Z,100396.72
2018-12-19T02:33:18.111Z,100404.06
2018-12-19T02:35:47.021Z,100402.78
2018-12-19T02:38:16.183Z,100402.78
2018-12-19T02:40:45.090Z,100402.35
2018-12-19T02:43:14.012Z,100403.63
2018-12-19T02:45:42.905Z,100406.22
2018-12-19T02:48:11.728Z,100408.41
2018-12-19T02:50:40.663Z,100406.66
2018-12-19T02:53:09.464Z,100412.26
2018-12-19T02:55:38.376Z,100407.52
2018-12-19T02:58:07.417Z,100404.50
2018-12-19T03:00:36.246Z,100402.37
2018-12-19T03:03:05.088Z,100411.00
2018-12-19T03:05:33.917Z,100412.77
2018-12-19T03:08:02.853Z,100411.81
2018-12-19T03:10:31.766Z,100420.08
2018-12-19T03:13:00.686Z,100422.23
2018-12-19T03:15:29.500Z,100428.30
2018-12-19T03:17:58.523Z,100426.14
2018-12-19T03:20:27.458Z,100429.16
2018-12-19T03:22:56.246Z,100433.50
2018-12-19T03:25:25.183Z,100437.81
2018-12-19T03:27:54.101Z,100437.80
2018-12-19T03:30:23.004Z,100446.45
2018-12-19T03:32:52.046Z,100451.20
2018-12-19T03:35:21.038Z,100455.06
2018-12-19T03:37:49.969Z,100452.04
2018-12-19T03:40:18.777Z,100453.34
2018-12-19T03:42:48.141Z,100456.80
2018-12-19T03:45:16.961Z,100451.64
2018-12-19T03:47:45.949Z,100460.71
2018-12-19T03:50:15.725Z,100466.73
2018-12-19T03:52:44.780Z,100468.89
2018-12-19T03:55:13.697Z,100469.33
2018-12-19T03:57:42.616Z,100474.52
2018-12-19T04:00:11.447Z,100474.95
2018-12-19T04:02:40.264Z,100480.59
2018-12-19T04:05:09.233Z,100487.08
2018-12-19T04:07:38.021Z,100492.69
2018-12-19T04:10:06.871Z,100490.10
2018-12-19T04:12:35.849Z,100495.27
2018-12-19T04:15:05.233Z,100494.84
2018-12-19T04:17:34.049Z,100494.41
2018-12-19T04:20:03.013Z,100498.69
2018-12-19T04:22:31.919Z,100497.42
2018-12-19T04:25:00.942Z,100503.91
2018-12-19T04:27:29.853Z,100508.23
2018-12-19T04:29:59.069Z,100509.48
2018-12-19T04:32:28.133Z,100518.59
2018-12-19T04:34:57.237Z,100521.63
2018-12-19T04:37:29.198Z,100521.63
2018-12-19T04:40:05.100Z,100532.01
2018-12-19T04:42:29.011Z,100525.52
2018-12-19T04:44:58.041Z,100519.03
2018-12-19T04:47:26.870Z,100522.93
2018-12-19T04:49:55.893Z,100520.77
2018-12-19T04:52:25.496Z,100525.94
2018-12-19T04:54:54.373Z,100525.96
2018-12-19T04:57:23.294Z,100528.97
2018-12-19T04:59:52.136Z,100522.91
2018-12-19T05:02:21.057Z,100526.39
2018-12-19T05:04:50.002Z,100516.01
2018-12-19T05:07:20.578Z,100524.20
2018-12-19T05:09:49.507Z,100525.52
2018-12-19T05:12:18.335Z,100528.95
2018-12-19T05:14:47.385Z,100530.25
2018-12-19T05:17:16.307Z,100532.85
2018-12-19T05:19:45.596Z,100543.22
2018-12-19T05:22:14.532Z,100531.13
2018-12-19T05:24:43.341Z,100543.64
2018-12-19T05:27:12.298Z,100541.52
2018-12-19T05:29:41.338Z,100541.50
2018-12-19T05:32:10.147Z,100541.95
2018-12-19T05:34:39.054Z,100544.54
2018-12-19T05:37:07.896Z,100537.17
2018-12-19T05:39:36.714Z,100549.70
2018-12-19T05:42:05.537Z,100548.87
2018-12-19T05:44:34.455Z,100553.19
2018-12-19T05:47:03.253Z,100551.02
2018-12-19T05:49:32.725Z,100553.59
2018-12-19T05:52:01.740Z,100551.44
2018-12-19T05:54:30.653Z,100548.42
2018-12-19T05:56:59.585Z,100554.47
2018-12-19T05:59:28.692Z,100556.64
2018-12-19T06:01:57.840Z,100554.90
2018-12-19T06:04:26.781Z,100557.50
2018-12-19T06:06:55.819Z,100557.91
2018-12-19T06:09:24.770Z,100559.22
2018-12-19T06:11:53.582Z,100563.55
2018-12-19T06:14:22.429Z,100560.94
2018-12-19T06:16:51.337Z,100562.69
2018-12-19T06:19:20.254Z,100565.28
2018-12-19T06:21:49.260Z,100560.94
2018-12-19T06:24:18.258Z,100561.81
2018-12-19T06:26:47.089Z,100562.23
2018-12-19T06:29:16.036Z,100566.55
2018-12-19T06:31:44.987Z,100563.55
2018-12-19T06:34:13.793Z,100566.15
2018-12-19T06:36:42.718Z,100567.88
2018-12-19T06:39:11.681Z,100561.37
2018-12-19T06:41:40.588Z,100571.33
2018-12-19T06:44:09.538Z,100580.41
2018-12-19T06:46:38.346Z,100579.96
2018-12-19T06:49:07.170Z,100585.61
2018-12-19T06:51:36.080Z,100583.00
2018-12-19T06:54:05.192Z,100586.47
2018-12-19T06:56:34.106Z,100589.50
2018-12-19T06:59:02.930Z,100592.95
2018-12-19T07:01:31.822Z,100595.98
2018-12-19T07:04:00.754Z,100588.19
2018-12-19T07:06:29.678Z,100592.95
2018-12-19T07:08:58.903Z,100600.30
2018-12-19T07:11:28.104Z,100606.35
2018-12-19T07:13:57.202Z,100609.36
2018-12-19T07:16:26.109Z,100609.38
2018-12-19T07:18:54.931Z,100605.92
2018-12-19T07:21:23.769Z,100611.54
2018-12-19T07:23:52.873Z,100614.55
2018-12-19T07:26:21.789Z,100614.55
2018-12-19T07:28:50.818Z,100614.56
2018-12-19T07:31:19.725Z,100615.41
2018-12-19T07:33:48.516Z,100612.39
2018-12-19T07:36:17.428Z,100621.90
2018-12-19T07:38:46.332Z,100618.87
2018-12-19T07:41:15.161Z,100628.81
2018-12-19T07:43:44.116Z,100630.98
2018-12-19T07:46:19.548Z,100639.66
2018-12-19T07:48:43.995Z,100638.35
2018-12-19T07:51:13.054Z,100638.80
2018-12-19T07:53:41.936Z,100641.38
2018-12-19T07:56:11.193Z,100647.41
2018-12-19T07:58:40.028Z,100643.11
2018-12-19T08:01:08.956Z,100646.12
2018-12-19T08:03:37.800Z,100650.01
2018-12-19T08:06:06.714Z,100640.94
2018-12-19T08:08:35.656Z,100647.88
2018-12-19T08:11:04.661Z,100647.41
2018-12-19T08:13:33.681Z,100647.00
2018-12-19T08:16:02.530Z,100650.03
2018-12-19T08:18:31.594Z,100651.73
2018-12-19T08:21:00.628Z,100654.35
2018-12-19T08:23:29.462Z,100646.55
2018-12-19T08:25:58.377Z,100646.14
2018-12-19T08:28:27.210Z,100645.72
2018-12-19T08:30:56.040Z,100640.09
2018-12-19T08:33:25.058Z,100642.23
2018-12-19T08:35:53.985Z,100646.12
2018-12-19T08:38:22.817Z,100639.20
2018-12-19T08:40:51.861Z,100635.75
2018-12-19T08:43:20.677Z,100639.20
2018-12-19T08:45:50.156Z,100634.89
2018-12-19T08:48:19.007Z,100638.33
2018-12-19T08:50:48.098Z,100639.20
2018-12-19T08:53:17.025Z,100632.73
2018-12-19T08:55:46.121Z,100628.78
2018-12-19T08:58:15.393Z,100632.73
2018-12-19T09:00:44.303Z,100618.39
2018-12-19T09:03:13.173Z,100622.28
2018-12-19T09:05:42.315Z,100615.81
2018-12-19T09:08:11.285Z,100608.87
2018-12-19T09:10:40.138Z,100617.10
2018-12-19T09:13:09.045Z,100617.48
2018-12-19T09:15:43.571Z,100611.49
2018-12-19T09:18:12.381Z,100614.08
2018-12-19T09:20:41.213Z,100617.94
2018-12-19T09:23:10.153Z,100607.52
2018-12-19T09:25:39.060Z,100612.73
2018-12-19T09:28:08.840Z,100612.77
2018-12-19T09:30:37.953Z,100606.23
2018-12-19T09:33:07.009Z,100605.35
2018-12-19T09:35:36.041Z,100599.77
2018-12-19T09:38:04.889Z,100598.05
2018-12-19T09:40:33.776Z,100595.48
2018-12-19T09:43:02.715Z,100595.87
2018-12-19T09:45:31.672Z,100594.58
2018-12-19T09:48:00.761Z,100594.57
2018-12-19T09:50:29.734Z,100597.17
2018-12-19T09:52:58.572Z,100592.84
2018-12-19T09:55:27.489Z,100591.12
2018-12-19T09:57:56.402Z,100594.53
2018-12-19T10:00:27.130Z,100589.70
2018-12-19T10:02:56.585Z,100588.03
2018-12-19T10:05:25.661Z,100590.19
2018-12-19T10:07:54.486Z,100592.38
2018-12-19T10:10:23.457Z,100579.33
2018-12-19T10:12:52.593Z,100582.80
2018-12-19T10:15:21.509Z,100581.92
2018-12-19T10:17:50.461Z,100580.65
2018-12-19T10:20:19.321Z,100581.95
2018-12-19T10:22:50.196Z,100581.90
2018-12-19T10:25:19.202Z,100575.91
2018-12-19T10:27:48.033Z,100578.41
2018-12-19T10:30:16.928Z,100573.63
2018-12-19T10:32:50.712Z,100574.95
2018-12-19T10:35:19.654Z,100574.02
2018-12-19T10:37:48.661Z,100573.59
2018-12-19T10:40:17.604Z,100575.80
2018-12-19T10:42:46.526Z,100572.80
2018-12-19T10:45:15.612Z,100578.38
2018-12-19T10:47:44.526Z,100577.11
2018-12-19T10:50:13.464Z,100577.53
2018-12-19T10:52:42.492Z,100570.66
2018-12-19T10:55:11.613Z,100570.20
2018-12-19T10:57:40.428Z,100577.09
2018-12-19T11:00:17.844Z,100573.21
2018-12-19T11:02:46.816Z,100571.53
2018-12-19T11:05:15.848Z,100572.35
2018-12-19T11:07:44.695Z,100570.14
2018-12-19T11:10:13.761Z,100570.14
2018-12-19T11:12:42.796Z,100571.88
2018-12-19T11:15:11.875Z,100569.70
2018-12-19T11:17:40.701Z,100567.48
2018-12-19T11:20:10.353Z,100568.00
2018-12-19T11:22:39.362Z,100566.22
2018-12-19T11:25:08.317Z,100569.69
2018-12-19T11:27:37.457Z,100570.14
2018-12-19T11:30:08.080Z,100567.88
2018-12-19T11:32:36.989Z,100566.14
2018-12-19T11:35:06.084Z,100563.08
2018-12-19T11:37:35.068Z,100564.04
2018-12-19T11:40:05.134Z,100561.84
2018-12-19T11:42:33.949Z,100561.90
2018-12-19T11:45:03.073Z,100565.75
2018-12-19T11:47:32.133Z,100571.74
2018-12-19T11:50:00.975Z,100563.06
2018-12-19T11:52:29.883Z,100562.69
2018-12-19T11:54:58.717Z,100562.25
2018-12-19T11:57:27.613Z,100562.22
2018-12-19T11:59:56.612Z,100554.45
2018-12-19T12:02:25.545Z,100559.69
2018-12-19T12:04:54.400Z,100557.49
2018-12-19T12:07:23.325Z,100561.34
2018-12-19T12:09:52.265Z,100559.63
2018-12-19T12:12:21.176Z,100559.64
2018-12-19T12:14:50.036Z,100560.95
2018-12-19T12:17:19.096Z,100559.57
2018-12-19T12:19:48.032Z,100558.84
2018-12-19T12:22:16.952Z,100556.58
2018-12-19T12:24:45.771Z,100560.00
2018-12-19T12:27:14.785Z,100563.05
2018-12-19T12:29:43.705Z,100564.36
2018-12-19T12:32:12.540Z,100551.78
2018-12-19T12:34:41.564Z,100553.99
2018-12-19T12:37:10.477Z,100553.93
2018-12-19T12:39:39.482Z,100555.20
2018-12-19T12:42:08.418Z,100555.17
2018-12-19T12:44:38.072Z,100557.27
2018-12-19T12:47:07.230Z,100559.88
2018-12-19T12:49:36.183Z,100559.95
2018-12-19T12:52:05.262Z,100553.46
2018-12-19T12:54:34.107Z,100557.39
2018-12-19T12:57:03.352Z,100557.31
2018-12-19T12:59:32.989Z,100553.75
2018-12-19T13:02:02.333Z,100558.64
2018-12-19T13:04:31.244Z,100557.83
2018-12-19T13:07:00.197Z,100563.86
2018-12-19T13:09:29.509Z,100571.61
2018-12-19T13:11:58.958Z,100572.02
2018-12-19T13:14:28.327Z,100571.58
2018-12-19T13:16:57.158Z,100580.28
2018-12-19T13:19:26.198Z,100574.27
2018-12-19T13:21:55.170Z,100578.16
2018-12-19T13:24:24.393Z,100580.75
2018-12-19T13:26:53.205Z,100590.31
2018-12-19T13:29:22.345Z,100591.15
2018-12-19T13:31:51.609Z,100589.45
2018-12-19T13:34:22.711Z,100596.37
2018-12-19T13:36:51.717Z,100608.48
2018-12-19T13:39:20.669Z,100604.20
2018-12-19T13:41:49.785Z,100605.46
2018-12-19T13:44:18.745Z,100603.82
2018-12-19T13:46:48.593Z,100605.53
2018-12-19T13:49:18.935Z,100608.99
2018-12-19T13:51:48.205Z,100615.06
2018-12-19T13:54:17.514Z,100609.45
2018-12-19T13:56:46.913Z,100612.06
2018-12-19T13:59:15.847Z,100609.47
2018-12-19T14:01:44.898Z,100615.52
2018-12-19T14:04:13.815Z,100610.69
2018-12-19T14:06:43.253Z,100618.55
2018-12-19T14:09:12.487Z,100620.76
2018-12-19T14:11:41.489Z,100625.48
2018-12-19T14:14:10.752Z,100623.75
2018-12-19T14:16:39.848Z,100625.92
2018-12-19T14:19:08.772Z,100627.66
2018-12-19T14:21:37.856Z,100635.93
2018-12-19T14:24:07.081Z,100631.13
2018-12-19T14:26:36.510Z,100633.31
2018-12-19T14:29:05.527Z,100640.24
2018-12-19T14:31:34.440Z,100641.97
2018-12-19T14:34:03.460Z,100638.92
2018-12-19T14:36:32.682Z,100633.34
2018-12-19T14:39:01.593Z,100634.98
2018-12-19T14:41:30.839Z,100637.20
2018-12-19T14:44:00.469Z,100636.81
2018-12-19T14:46:29.425Z,100634.17
2018-12-19T14:48:58.673Z,100641.95
2018-12-19T14:51:27.998Z,100646.77
2018-12-19T14:53:57.314Z,100649.34
2018-12-19T14:56:26.262Z,100655.80
2018-12-19T14:58:55.646Z,100648.05
2018-12-19T15:01:24.822Z,100651.52
2018-12-19T15:03:53.748Z,100662.33
2018-12-19T15:06:22.993Z,100657.59
2018-12-19T15:08:52.141Z,100655.02
2018-12-19T15:11:21.303Z,100661.87
2018-12-19T15:13:50.325Z,100668.38
2018-12-19T15:16:23.204Z,100667.53
2018-12-19T15:18:52.481Z,100669.67
2018-12-19T15:21:21.845Z,100671.45
2018-12-19T15:23:51.567Z,100681.39
2018-12-19T15:26:21.117Z,100681.37
2018-12-19T15:28:50.026Z,100681.86
2018-12-19T15:31:19.061Z,100690.92
2018-12-19T15:33:48.271Z,100688.75
2018-12-19T15:36:17.263Z,100689.64
2018-12-19T15:38:46.495Z,100692.26
2018-12-19T15:41:15.744Z,100692.23
2018-12-19T15:43:45.489Z,100688.77
2018-12-19T15:46:14.932Z,100681.39
2018-12-19T15:48:43.964Z,100683.55
2018-12-19T15:51:12.865Z,100682.26
2018-12-19T15:53:41.884Z,100687.44
2018-12-19T15:56:10.876Z,100683.53
2018-12-19T15:58:40.295Z,100684.03
2018-12-19T16:01:09.631Z,100694.43
2018-12-19T16:03:38.609Z,100690.06
2018-12-19T16:06:07.979Z,100693.48
2018-12-19T16:08:37.590Z,100691.31
2018-12-19T16:11:06.926Z,100691.31
2018-12-19T16:13:35.866Z,100699.12
2018-12-19T16:16:05.141Z,100689.56
2018-12-19T16:18:34.052Z,100694.36
2018-12-19T16:21:03.329Z,100692.23
2018-12-19T16:23:32.436Z,100698.24
2018-12-19T16:26:01.364Z,100700.92
2018-12-19T16:28:30.534Z,100697.37
2018-12-19T16:30:59.653Z,100703.47
2018-12-19T16:33:28.582Z,100702.17
2018-12-19T16:35:57.971Z,100702.19
2018-12-19T16:38:26.893Z,100705.17
2018-12-19T16:40:55.883Z,100712.63
2018-12-19T16:43:24.966Z,100719.53
2018-12-19T16:45:53.901Z,100724.69
2018-12-19T16:48:23.013Z,100723.41
2018-12-19T16:50:52.164Z,100728.17
2018-12-19T16:53:21.725Z,100727.33
2018-12-19T16:55:50.799Z,100729.95
2018-12-19T16:58:19.857Z,100729.91
2018-12-19T17:00:48.901Z,100733.41
2018-12-19T17:03:17.852Z,100732.99
2018-12-19T17:05:46.866Z,100734.72
2018-12-19T17:08:16.093Z,100733.41
2018-12-19T17:10:44.990Z,100736.41
2018-12-19T17:13:13.902Z,100742.52
2018-12-19T17:15:44.701Z,100740.79
2018-12-19T17:18:13.656Z,100740.36
2018-12-19T17:20:42.654Z,100742.08
2018-12-19T17:23:11.609Z,100742.56
2018-12-19T17:25:40.375Z,100741.25
2018-12-19T17:28:09.217Z,100740.42
2018-12-19T17:30:38.060Z,100746.45
2018-12-19T17:33:07.155Z,100748.64
2018-12-19T17:35:36.073Z,100758.59
2018-12-19T17:38:04.818Z,100752.96
2018-12-19T17:40:33.556Z,100755.13
2018-12-19T17:43:02.397Z,100754.30
2018-12-19T17:45:31.342Z,100751.69
2018-12-19T17:48:00.269Z,100754.72
2018-12-19T17:50:29.125Z,100750.79
2018-12-19T17:52:58.045Z,100749.53
2018-12-19T17:55:27.093Z,100746.50
2018-12-19T17:57:56.724Z,100750.36
2018-12-19T18:00:25.909Z,100749.95
2018-12-19T18:02:54.913Z,100750.81
2018-12-19T18:05:24.164Z,100745.19
2018-12-19T18:07:52.917Z,100739.15
2018-12-19T18:10:21.769Z,100736.53
2018-12-19T18:12:50.746Z,100740.41
2018-12-19T18:15:19.712Z,100743.02
2018-12-19T18:17:48.746Z,100738.72
2018-12-19T18:20:17.629Z,100735.69
2018-12-19T18:22:48.092Z,100739.13
2018-12-19T18:25:16.817Z,100741.72
2018-12-19T18:27:45.743Z,100743.89
2018-12-19T18:30:15.199Z,100746.91
2018-12-19T18:32:44.111Z,100752.98
2018-12-19T18:35:14.080Z,100756.88
2018-12-19T18:37:42.975Z,100753.43
2018-12-19T18:40:12.375Z,100759.91
2018-12-19T18:42:41.371Z,100757.75
2018-12-19T18:45:12.059Z,100759.03
2018-12-19T18:47:41.514Z,100749.53
2018-12-19T18:50:11.070Z,100756.88
2018-12-19T18:52:40.282Z,100749.48
2018-12-19T18:55:09.601Z,100755.55
2018-12-19T18:57:38.556Z,100756.85
2018-12-19T19:00:08.487Z,100759.47
2018-12-19T19:02:38.145Z,100756.41
2018-12-19T19:05:08.412Z,100760.72
2018-12-19T19:07:37.408Z,100768.95
2018-12-19T19:10:06.730Z,100762.44
2018-12-19T19:12:36.310Z,100759.39
2018-12-19T19:15:05.728Z,100765.07
2018-12-19T19:17:34.569Z,100772.88
2018-12-19T19:20:04.224Z,100765.55
2018-12-19T19:22:33.147Z,100763.78
2018-12-19T19:25:02.525Z,100768.98
2018-12-19T19:27:31.550Z,100766.38
2018-12-19T19:30:00.510Z,100762.45
2018-12-19T19:32:29.910Z,100762.85
2018-12-19T19:34:58.872Z,100759.34
2018-12-19T19:37:28.230Z,100762.78
2018-12-19T19:39:57.365Z,100758.48
2018-12-19T19:42:26.193Z,100760.26
2018-12-19T19:44:55.112Z,100762.00
2018-12-19T19:47:24.785Z,100764.12
2018-12-19T19:49:54.645Z,100774.39
2018-12-19T19:52:24.202Z,100771.70
2018-12-19T19:54:53.588Z,100769.61
2018-12-19T19:57:22.596Z,100771.27
2018-12-19T19:59:51.476Z,100771.77
2018-12-19T20:02:20.221Z,100780.94
2018-12-19T20:04:49.737Z,100781.73
2018-12-19T20:07:18.725Z,100780.30
2018-12-19T20:09:47.560Z,100780.30
2018-12-19T20:12:17.900Z,100781.68
2018-12-19T20:14:46.687Z,100789.86
2018-12-19T20:17:21.150Z,100788.59
2018-12-19T20:19:50.388Z,100792.86
2018-12-19T20:22:19.845Z,100791.14
2018-12-19T20:24:49.212Z,100800.59
2018-12-19T20:27:18.080Z,100797.92
2018-12-19T20:29:47.019Z,100800.59
2018-12-19T20:32:16.631Z,100798.06
2018-12-19T20:34:45.642Z,100800.59
2018-12-19T20:37:14.831Z,100792.77
2018-12-19T20:39:43.824Z,100797.61
2018-12-19T20:42:12.677Z,100796.30
2018-12-19T20:44:41.432Z,100795.33
2018-12-19T20:47:10.182Z,100801.86
2018-12-19T20:49:39.325Z,100790.99
2018-12-19T20:52:08.157Z,100792.80
2018-12-19T20:54:37.212Z,100795.78
2018-12-19T20:57:06.212Z,100796.99
2018-12-19T20:59:34.972Z,100801.50
2018-12-19T21:02:04.246Z,100802.20
2018-12-19T21:04:33.192Z,100798.38
2018-12-19T21:07:03.185Z,100801.30
2018-12-19T21:09:32.049Z,100805.69
2018-12-19T21:12:01.182Z,100796.23
2018-12-19T21:14:30.349Z,100793.58
2018-12-19T21:17:05.232Z,100796.23
2018-12-19T21:19:34.176Z,100791.06
2018-12-19T21:22:05.035Z,100786.00
2018-12-19T21:24:34.061Z,100793.23
2018-12-19T21:27:03.196Z,100792.66
2018-12-19T21:29:32.131Z,100793.47
2018-12-19T21:32:01.103Z,100788.77
2018-12-19T21:34:29.925Z,100784.89
2018-12-19T21:36:58.805Z,100788.77
2018-12-19T21:39:27.545Z,100789.22
2018-12-19T21:41:56.584Z,100793.11
2018-12-19T21:44:25.532Z,100789.53
2018-12-19T21:46:54.716Z,100779.70
2018-12-19T21:49:23.951Z,100780.61
2018-12-19T21:51:54.048Z,100777.59
2018-12-19T21:54:23.030Z,100772.75
2018-12-19T21:56:52.324Z,100777.53
2018-12-19T21:59:21.770Z,100784.19
2018-12-19T22:01:50.932Z,100779.50
2018-12-19T22:04:19.974Z,100780.98
2018-12-19T22:06:49.382Z,100780.23
2018-12-19T22:09:18.739Z,100768.97
2018-12-19T22:11:47.715Z,100770.55
2018-12-19T22:14:16.536Z,100773.84
2018-12-19T22:16:50.993Z,100771.21
2018-12-19T22:19:20.225Z,100761.83
2018-12-19T22:21:49.248Z,100762.64
2018-12-19T22:24:18.091Z,100763.87
2018-12-19T22:26:46.964Z,100757.88
2018-12-19T22:29:15.850Z,100761.86
2018-12-19T22:31:44.906Z,100762.54
2018-12-19T22:34:14.001Z,100759.47
2018-12-19T22:36:43.065Z,100760.65
2018-12-19T22:39:19.588Z,100760.64
2018-12-19T22:41:48.634Z,100756.95
2018-12-19T22:44:17.638Z,100750.17
2018-12-19T22:46:46.553Z,100744.42
2018-12-19T22:49:15.557Z,100747.81
2018-12-19T22:51:44.457Z,100749.66
2018-12-19T22:54:13.548Z,100747.59
2018-12-19T22:56:42.558Z,100743.76
2018-12-19T22:59:11.564Z,100743.25
2018-12-19T23:01:46.069Z,100734.72
2018-12-19T23:04:14.941Z,100737.73
2018-12-19T23:06:44.459Z,100733.25
2018-12-19T23:09:13.539Z,100747.19
2018-12-19T23:11:42.561Z,100745.30
2018-12-19T23:14:15.506Z,100741.44
2018-12-19T23:16:43.597Z,100746.69
2018-12-19T23:19:12.642Z,100748.91
2018-12-19T23:21:41.464Z,100749.50
2018-12-19T23:24:10.401Z,100743.19
2018-12-19T23:26:39.219Z,100745.42
2018-12-19T23:29:08.224Z,100743.25
2018-12-19T23:31:37.479Z,100734.70
2018-12-19T23:34:06.514Z,100741.95
2018-12-19T23:36:35.442Z,100742.67
2018-12-19T23:39:06.637Z,100737.92
2018-12-19T23:41:35.704Z,100744.48
2018-12-19T23:44:04.752Z,100746.17
2018-12-19T23:46:34.538Z,100744.81
2018-12-19T23:49:03.457Z,100743.52
2018-12-19T23:51:32.619Z,100749.56
2018-12-19T23:54:01.630Z,100753.31
2018-12-19T23:56:30.668Z,100753.38
2018-12-19T23:58:59.701Z,100749.08
